sensor_id;sensor_type;location;lat;lon;timestamp;P1;durP1;ratioP1;P2;durP2;ratioP2
13698;SDS011;6921;53.642;9.956;2022-11-20T00:01:26;7.07;;;3.33;;
13698;SDS011;6921;53.642;9.956;2022-11-20T00:03:29;6.10;;;4.23;;
13698;SDS011;6921;53.642;9.956;2022-11-20T00:05:33;4.57;;;3.57;;
13698;SDS011;6921;53.642;9.956;2022-11-20T00:07:39;5.73;;;3.80;;
13698;SDS011;6921;53.642;9.956;2022-11-20T00:09:42;4.40;;;2.97;;
13698;SDS011;6921;53.642;9.956;2022-11-20T00:11:45;6.60;;;3.97;;
13698;SDS011;6921;53.642;9.956;2022-11-20T00:13:49;5.17;;;3.67;;
13698;SDS011;6921;53.642;9.956;2022-11-20T00:15:56;6.40;;;3.60;;
13698;SDS011;6921;53.642;9.956;2022-11-20T00:17:59;6.50;;;3.70;;
13698;SDS011;6921;53.642;9.956;2022-11-20T00:20:03;4.63;;;3.73;;
13698;SDS011;6921;53.642;9.956;2022-11-20T00:22:06;5.53;;;3.80;;
13698;SDS011;6921;53.642;9.956;2022-11-20T00:24:11;6.17;;;3.70;;
13698;SDS011;6921;53.642;9.956;2022-11-20T00:26:15;5.40;;;4.00;;
13698;SDS011;6921;53.642;9.956;2022-11-20T00:28:18;5.50;;;3.70;;
13698;SDS011;6921;53.642;9.956;2022-11-20T00:30:22;4.70;;;3.70;;
13698;SDS011;6921;53.642;9.956;2022-11-20T00:32:25;4.77;;;3.20;;
13698;SDS011;6921;53.642;9.956;2022-11-20T00:34:29;5.40;;;3.57;;
13698;SDS011;6921;53.642;9.956;2022-11-20T00:36:33;6.03;;;3.90;;
13698;SDS011;6921;53.642;9.956;2022-11-20T00:38:36;7.43;;;3.37;;
13698;SDS011;6921;53.642;9.956;2022-11-20T00:40:41;5.57;;;3.73;;
13698;SDS011;6921;53.642;9.956;2022-11-20T00:42:44;4.43;;;3.53;;
13698;SDS011;6921;53.642;9.956;2022-11-20T00:44:48;5.13;;;3.70;;
13698;SDS011;6921;53.642;9.956;2022-11-20T00:46:51;3.93;;;3.33;;
13698;SDS011;6921;53.642;9.956;2022-11-20T00:48:54;4.30;;;3.33;;
13698;SDS011;6921;53.642;9.956;2022-11-20T00:50:58;4.80;;;3.67;;
13698;SDS011;6921;53.642;9.956;2022-11-20T00:53:01;6.13;;;3.60;;
13698;SDS011;6921;53.642;9.956;2022-11-20T00:55:05;4.63;;;3.47;;
13698;SDS011;6921;53.642;9.956;2022-11-20T00:57:09;5.17;;;3.33;;
13698;SDS011;6921;53.642;9.956;2022-11-20T00:59:13;4.40;;;3.40;;
13698;SDS011;6921;53.642;9.956;2022-11-20T01:01:17;4.17;;;3.10;;
13698;SDS011;6921;53.642;9.956;2022-11-20T01:03:20;4.43;;;3.73;;
13698;SDS011;6921;53.642;9.956;2022-11-20T01:05:27;4.43;;;3.30;;
13698;SDS011;6921;53.642;9.956;2022-11-20T01:07:31;4.47;;;3.40;;
13698;SDS011;6921;53.642;9.956;2022-11-20T01:09:35;5.37;;;3.70;;
13698;SDS011;6921;53.642;9.956;2022-11-20T01:11:39;6.83;;;4.10;;
13698;SDS011;6921;53.642;9.956;2022-11-20T01:13:44;10.20;;;3.87;;
13698;SDS011;6921;53.642;9.956;2022-11-20T01:15:47;5.60;;;3.60;;
13698;SDS011;6921;53.642;9.956;2022-11-20T01:17:50;7.40;;;3.20;;
13698;SDS011;6921;53.642;9.956;2022-11-20T01:19:54;5.37;;;3.50;;
13698;SDS011;6921;53.642;9.956;2022-11-20T01:21:57;4.23;;;3.63;;
13698;SDS011;6921;53.642;9.956;2022-11-20T01:24:00;7.43;;;3.50;;
13698;SDS011;6921;53.642;9.956;2022-11-20T01:26:05;6.27;;;3.50;;
13698;SDS011;6921;53.642;9.956;2022-11-20T01:28:08;4.47;;;3.60;;
13698;SDS011;6921;53.642;9.956;2022-11-20T01:30:13;5.80;;;3.57;;
13698;SDS011;6921;53.642;9.956;2022-11-20T01:32:17;7.30;;;4.00;;
13698;SDS011;6921;53.642;9.956;2022-11-20T01:34:20;5.43;;;3.70;;
13698;SDS011;6921;53.642;9.956;2022-11-20T01:36:24;5.33;;;3.90;;
13698;SDS011;6921;53.642;9.956;2022-11-20T01:38:28;5.03;;;3.70;;
13698;SDS011;6921;53.642;9.956;2022-11-20T01:40:31;6.77;;;3.70;;
13698;SDS011;6921;53.642;9.956;2022-11-20T01:42:34;7.37;;;4.00;;
13698;SDS011;6921;53.642;9.956;2022-11-20T01:44:58;6.00;;;4.30;;
13698;SDS011;6921;53.642;9.956;2022-11-20T01:47:03;4.33;;;3.80;;
13698;SDS011;6921;53.642;9.956;2022-11-20T01:49:08;6.03;;;4.10;;
13698;SDS011;6921;53.642;9.956;2022-11-20T01:51:15;5.27;;;4.00;;
13698;SDS011;6921;53.642;9.956;2022-11-20T01:53:21;7.70;;;4.37;;
13698;SDS011;6921;53.642;9.956;2022-11-20T01:55:27;5.20;;;3.50;;
13698;SDS011;6921;53.642;9.956;2022-11-20T01:57:31;5.20;;;3.83;;
13698;SDS011;6921;53.642;9.956;2022-11-20T01:59:36;6.70;;;3.90;;
13698;SDS011;6921;53.642;9.956;2022-11-20T02:01:41;4.73;;;3.53;;
13698;SDS011;6921;53.642;9.956;2022-11-20T02:03:46;5.47;;;3.77;;
13698;SDS011;6921;53.642;9.956;2022-11-20T02:05:51;6.33;;;3.97;;
13698;SDS011;6921;53.642;9.956;2022-11-20T02:07:57;6.80;;;3.70;;
13698;SDS011;6921;53.642;9.956;2022-11-20T02:10:00;6.33;;;4.20;;
13698;SDS011;6921;53.642;9.956;2022-11-20T02:12:04;6.03;;;3.97;;
13698;SDS011;6921;53.642;9.956;2022-11-20T02:14:27;8.00;;;3.90;;
13698;SDS011;6921;53.642;9.956;2022-11-20T02:16:30;5.60;;;3.93;;
13698;SDS011;6921;53.642;9.956;2022-11-20T02:18:34;5.40;;;4.10;;
13698;SDS011;6921;53.642;9.956;2022-11-20T02:20:39;5.13;;;3.93;;
13698;SDS011;6921;53.642;9.956;2022-11-20T02:22:45;7.47;;;4.23;;
13698;SDS011;6921;53.642;9.956;2022-11-20T02:24:53;7.40;;;3.93;;
13698;SDS011;6921;53.642;9.956;2022-11-20T02:26:57;5.97;;;3.83;;
13698;SDS011;6921;53.642;9.956;2022-11-20T02:29:02;5.87;;;4.23;;
13698;SDS011;6921;53.642;9.956;2022-11-20T02:31:06;5.23;;;3.70;;
13698;SDS011;6921;53.642;9.956;2022-11-20T02:33:09;5.50;;;4.43;;
13698;SDS011;6921;53.642;9.956;2022-11-20T02:37:31;6.60;;;4.20;;
13698;SDS011;6921;53.642;9.956;2022-11-20T02:39:35;5.70;;;4.03;;
13698;SDS011;6921;53.642;9.956;2022-11-20T02:41:40;7.33;;;3.97;;
13698;SDS011;6921;53.642;9.956;2022-11-20T02:43:43;5.23;;;3.80;;
13698;SDS011;6921;53.642;9.956;2022-11-20T02:45:47;5.40;;;4.10;;
13698;SDS011;6921;53.642;9.956;2022-11-20T02:47:50;6.30;;;4.27;;
13698;SDS011;6921;53.642;9.956;2022-11-20T02:49:53;5.67;;;4.20;;
13698;SDS011;6921;53.642;9.956;2022-11-20T02:51:57;8.17;;;3.70;;
13698;SDS011;6921;53.642;9.956;2022-11-20T02:54:00;7.60;;;4.13;;
13698;SDS011;6921;53.642;9.956;2022-11-20T02:56:03;6.40;;;3.63;;
13698;SDS011;6921;53.642;9.956;2022-11-20T02:58:08;7.87;;;4.43;;
13698;SDS011;6921;53.642;9.956;2022-11-20T03:00:12;5.77;;;4.07;;
13698;SDS011;6921;53.642;9.956;2022-11-20T03:02:15;6.97;;;3.90;;
13698;SDS011;6921;53.642;9.956;2022-11-20T03:04:19;5.17;;;4.20;;
13698;SDS011;6921;53.642;9.956;2022-11-20T03:06:22;5.43;;;3.80;;
13698;SDS011;6921;53.642;9.956;2022-11-20T03:08:25;6.20;;;4.10;;
13698;SDS011;6921;53.642;9.956;2022-11-20T03:10:29;6.30;;;4.50;;
13698;SDS011;6921;53.642;9.956;2022-11-20T03:12:32;7.57;;;4.23;;
13698;SDS011;6921;53.642;9.956;2022-11-20T03:14:37;6.57;;;4.20;;
13698;SDS011;6921;53.642;9.956;2022-11-20T03:16:40;8.77;;;3.57;;
13698;SDS011;6921;53.642;9.956;2022-11-20T03:18:43;5.67;;;4.20;;
13698;SDS011;6921;53.642;9.956;2022-11-20T03:20:47;4.87;;;4.00;;
13698;SDS011;6921;53.642;9.956;2022-11-20T03:22:50;7.00;;;4.13;;
13698;SDS011;6921;53.642;9.956;2022-11-20T03:24:53;8.20;;;4.40;;
13698;SDS011;6921;53.642;9.956;2022-11-20T03:26:57;4.83;;;3.90;;
13698;SDS011;6921;53.642;9.956;2022-11-20T03:29:01;5.17;;;3.93;;
13698;SDS011;6921;53.642;9.956;2022-11-20T03:31:07;5.23;;;3.80;;
13698;SDS011;6921;53.642;9.956;2022-11-20T03:33:10;5.70;;;3.80;;
13698;SDS011;6921;53.642;9.956;2022-11-20T03:35:13;7.67;;;4.63;;
13698;SDS011;6921;53.642;9.956;2022-11-20T03:37:17;5.27;;;4.03;;
13698;SDS011;6921;53.642;9.956;2022-11-20T03:39:20;7.70;;;4.50;;
13698;SDS011;6921;53.642;9.956;2022-11-20T03:41:25;5.73;;;3.77;;
13698;SDS011;6921;53.642;9.956;2022-11-20T03:43:28;4.00;;;3.40;;
13698;SDS011;6921;53.642;9.956;2022-11-20T03:45:32;6.57;;;3.73;;
13698;SDS011;6921;53.642;9.956;2022-11-20T03:47:36;7.97;;;3.93;;
13698;SDS011;6921;53.642;9.956;2022-11-20T03:49:39;6.80;;;4.40;;
13698;SDS011;6921;53.642;9.956;2022-11-20T03:51:43;4.77;;;3.73;;
13698;SDS011;6921;53.642;9.956;2022-11-20T03:53:46;6.83;;;4.23;;
13698;SDS011;6921;53.642;9.956;2022-11-20T03:55:50;4.67;;;3.50;;
13698;SDS011;6921;53.642;9.956;2022-11-20T03:57:54;8.67;;;3.60;;
13698;SDS011;6921;53.642;9.956;2022-11-20T03:59:57;6.77;;;4.10;;
13698;SDS011;6921;53.642;9.956;2022-11-20T04:02:00;6.80;;;3.80;;
13698;SDS011;6921;53.642;9.956;2022-11-20T04:04:05;6.77;;;3.87;;
13698;SDS011;6921;53.642;9.956;2022-11-20T04:06:09;5.27;;;3.90;;
13698;SDS011;6921;53.642;9.956;2022-11-20T04:08:13;5.13;;;3.73;;
13698;SDS011;6921;53.642;9.956;2022-11-20T04:10:16;5.00;;;3.50;;
13698;SDS011;6921;53.642;9.956;2022-11-20T04:12:19;5.00;;;3.73;;
13698;SDS011;6921;53.642;9.956;2022-11-20T04:14:23;5.07;;;4.20;;
13698;SDS011;6921;53.642;9.956;2022-11-20T04:16:26;5.03;;;4.00;;
13698;SDS011;6921;53.642;9.956;2022-11-20T04:18:31;4.23;;;3.57;;
13698;SDS011;6921;53.642;9.956;2022-11-20T04:20:36;4.80;;;3.67;;
13698;SDS011;6921;53.642;9.956;2022-11-20T04:22:39;4.53;;;3.53;;
13698;SDS011;6921;53.642;9.956;2022-11-20T04:24:43;6.93;;;3.80;;
13698;SDS011;6921;53.642;9.956;2022-11-20T04:26:46;4.40;;;3.53;;
13698;SDS011;6921;53.642;9.956;2022-11-20T04:28:49;4.97;;;3.53;;
13698;SDS011;6921;53.642;9.956;2022-11-20T04:30:52;6.30;;;3.50;;
13698;SDS011;6921;53.642;9.956;2022-11-20T04:32:56;5.03;;;3.63;;
13698;SDS011;6921;53.642;9.956;2022-11-20T04:34:59;4.50;;;3.70;;
13698;SDS011;6921;53.642;9.956;2022-11-20T04:37:03;5.20;;;3.80;;
13698;SDS011;6921;53.642;9.956;2022-11-20T04:39:07;5.67;;;3.80;;
13698;SDS011;6921;53.642;9.956;2022-11-20T04:41:15;6.83;;;3.90;;
13698;SDS011;6921;53.642;9.956;2022-11-20T04:43:19;5.80;;;3.60;;
13698;SDS011;6921;53.642;9.956;2022-11-20T04:45:22;5.43;;;3.70;;
13698;SDS011;6921;53.642;9.956;2022-11-20T04:47:26;6.33;;;4.17;;
13698;SDS011;6921;53.642;9.956;2022-11-20T04:49:29;8.23;;;4.77;;
13698;SDS011;6921;53.642;9.956;2022-11-20T04:51:33;6.63;;;4.43;;
13698;SDS011;6921;53.642;9.956;2022-11-20T04:53:37;5.53;;;4.30;;
13698;SDS011;6921;53.642;9.956;2022-11-20T04:55:40;7.50;;;5.13;;
13698;SDS011;6921;53.642;9.956;2022-11-20T04:57:44;9.23;;;5.87;;
13698;SDS011;6921;53.642;9.956;2022-11-20T04:59:47;6.53;;;5.00;;
13698;SDS011;6921;53.642;9.956;2022-11-20T05:01:50;9.63;;;5.20;;
13698;SDS011;6921;53.642;9.956;2022-11-20T05:03:54;6.90;;;4.63;;
13698;SDS011;6921;53.642;9.956;2022-11-20T05:05:59;7.80;;;4.73;;
13698;SDS011;6921;53.642;9.956;2022-11-20T05:08:03;6.73;;;4.13;;
13698;SDS011;6921;53.642;9.956;2022-11-20T05:10:08;7.07;;;4.60;;
13698;SDS011;6921;53.642;9.956;2022-11-20T05:12:11;6.27;;;3.77;;
13698;SDS011;6921;53.642;9.956;2022-11-20T05:14:15;5.87;;;3.90;;
13698;SDS011;6921;53.642;9.956;2022-11-20T05:16:19;6.97;;;4.23;;
13698;SDS011;6921;53.642;9.956;2022-11-20T05:18:22;7.20;;;4.40;;
13698;SDS011;6921;53.642;9.956;2022-11-20T05:20:25;5.73;;;4.10;;
13698;SDS011;6921;53.642;9.956;2022-11-20T05:22:29;5.53;;;4.00;;
13698;SDS011;6921;53.642;9.956;2022-11-20T05:24:32;6.40;;;4.00;;
13698;SDS011;6921;53.642;9.956;2022-11-20T05:26:37;6.17;;;4.33;;
13698;SDS011;6921;53.642;9.956;2022-11-20T05:28:40;6.67;;;4.43;;
13698;SDS011;6921;53.642;9.956;2022-11-20T05:30:43;9.07;;;4.50;;
13698;SDS011;6921;53.642;9.956;2022-11-20T05:32:47;6.43;;;4.50;;
13698;SDS011;6921;53.642;9.956;2022-11-20T05:34:50;6.50;;;4.17;;
13698;SDS011;6921;53.642;9.956;2022-11-20T05:36:53;6.70;;;4.57;;
13698;SDS011;6921;53.642;9.956;2022-11-20T05:38:56;5.30;;;4.47;;
13698;SDS011;6921;53.642;9.956;2022-11-20T05:41:05;5.50;;;4.17;;
13698;SDS011;6921;53.642;9.956;2022-11-20T05:43:10;7.97;;;5.07;;
13698;SDS011;6921;53.642;9.956;2022-11-20T05:45:13;8.90;;;4.73;;
13698;SDS011;6921;53.642;9.956;2022-11-20T05:47:16;6.83;;;5.20;;
13698;SDS011;6921;53.642;9.956;2022-11-20T05:49:20;5.97;;;4.80;;
13698;SDS011;6921;53.642;9.956;2022-11-20T05:51:24;6.10;;;5.00;;
13698;SDS011;6921;53.642;9.956;2022-11-20T05:53:27;6.83;;;5.10;;
13698;SDS011;6921;53.642;9.956;2022-11-20T05:55:31;8.50;;;5.40;;
13698;SDS011;6921;53.642;9.956;2022-11-20T05:57:34;8.30;;;5.00;;
13698;SDS011;6921;53.642;9.956;2022-11-20T05:59:39;8.23;;;5.63;;
13698;SDS011;6921;53.642;9.956;2022-11-20T06:01:42;7.07;;;5.50;;
13698;SDS011;6921;53.642;9.956;2022-11-20T06:03:45;8.17;;;5.83;;
13698;SDS011;6921;53.642;9.956;2022-11-20T06:05:49;8.50;;;6.10;;
13698;SDS011;6921;53.642;9.956;2022-11-20T06:07:52;8.53;;;5.97;;
13698;SDS011;6921;53.642;9.956;2022-11-20T06:09:55;6.73;;;5.80;;
13698;SDS011;6921;53.642;9.956;2022-11-20T06:11:59;8.37;;;6.00;;
13698;SDS011;6921;53.642;9.956;2022-11-20T06:14:02;10.10;;;6.13;;
13698;SDS011;6921;53.642;9.956;2022-11-20T06:16:08;8.60;;;6.30;;
13698;SDS011;6921;53.642;9.956;2022-11-20T06:18:12;10.50;;;6.53;;
13698;SDS011;6921;53.642;9.956;2022-11-20T06:20:15;9.10;;;6.13;;
13698;SDS011;6921;53.642;9.956;2022-11-20T06:22:18;7.43;;;6.27;;
13698;SDS011;6921;53.642;9.956;2022-11-20T06:24:21;8.57;;;5.90;;
13698;SDS011;6921;53.642;9.956;2022-11-20T06:26:26;7.33;;;6.23;;
13698;SDS011;6921;53.642;9.956;2022-11-20T06:28:29;6.80;;;5.73;;
13698;SDS011;6921;53.642;9.956;2022-11-20T06:30:33;10.83;;;6.40;;
13698;SDS011;6921;53.642;9.956;2022-11-20T06:32:37;6.53;;;5.40;;
13698;SDS011;6921;53.642;9.956;2022-11-20T06:34:41;7.97;;;5.73;;
13698;SDS011;6921;53.642;9.956;2022-11-20T06:36:44;9.23;;;5.73;;
13698;SDS011;6921;53.642;9.956;2022-11-20T06:38:48;8.33;;;6.50;;
13698;SDS011;6921;53.642;9.956;2022-11-20T06:40:51;7.90;;;6.40;;
13698;SDS011;6921;53.642;9.956;2022-11-20T06:42:54;9.00;;;6.67;;
13698;SDS011;6921;53.642;9.956;2022-11-20T06:44:58;7.30;;;5.90;;
13698;SDS011;6921;53.642;9.956;2022-11-20T06:47:01;8.30;;;7.00;;
13698;SDS011;6921;53.642;9.956;2022-11-20T06:49:06;9.53;;;6.80;;
13698;SDS011;6921;53.642;9.956;2022-11-20T06:51:09;9.23;;;7.23;;
13698;SDS011;6921;53.642;9.956;2022-11-20T06:53:13;9.37;;;7.23;;
13698;SDS011;6921;53.642;9.956;2022-11-20T06:55:16;9.93;;;6.70;;
13698;SDS011;6921;53.642;9.956;2022-11-20T06:57:20;11.30;;;7.63;;
13698;SDS011;6921;53.642;9.956;2022-11-20T06:59:23;14.63;;;9.30;;
13698;SDS011;6921;53.642;9.956;2022-11-20T07:01:26;10.70;;;6.90;;
13698;SDS011;6921;53.642;9.956;2022-11-20T07:03:30;9.83;;;7.37;;
13698;SDS011;6921;53.642;9.956;2022-11-20T07:05:35;12.43;;;8.77;;
13698;SDS011;6921;53.642;9.956;2022-11-20T07:07:39;11.17;;;8.10;;
13698;SDS011;6921;53.642;9.956;2022-11-20T07:09:42;9.20;;;6.80;;
13698;SDS011;6921;53.642;9.956;2022-11-20T07:11:46;11.70;;;7.63;;
13698;SDS011;6921;53.642;9.956;2022-11-20T07:13:49;8.97;;;6.80;;
13698;SDS011;6921;53.642;9.956;2022-11-20T07:15:53;8.80;;;7.33;;
13698;SDS011;6921;53.642;9.956;2022-11-20T07:17:58;9.27;;;7.77;;
13698;SDS011;6921;53.642;9.956;2022-11-20T07:20:01;11.80;;;8.73;;
13698;SDS011;6921;53.642;9.956;2022-11-20T07:22:06;11.00;;;8.43;;
13698;SDS011;6921;53.642;9.956;2022-11-20T07:24:09;12.63;;;8.77;;
13698;SDS011;6921;53.642;9.956;2022-11-20T07:26:13;12.20;;;8.40;;
13698;SDS011;6921;53.642;9.956;2022-11-20T07:28:16;10.87;;;7.40;;
13698;SDS011;6921;53.642;9.956;2022-11-20T07:30:20;8.53;;;6.97;;
13698;SDS011;6921;53.642;9.956;2022-11-20T07:32:23;9.67;;;7.07;;
13698;SDS011;6921;53.642;9.956;2022-11-20T07:34:27;8.00;;;6.80;;
13698;SDS011;6921;53.642;9.956;2022-11-20T07:36:30;9.00;;;6.93;;
13698;SDS011;6921;53.642;9.956;2022-11-20T07:38:36;9.10;;;6.83;;
13698;SDS011;6921;53.642;9.956;2022-11-20T07:40:39;8.17;;;6.23;;
13698;SDS011;6921;53.642;9.956;2022-11-20T07:42:46;7.93;;;6.43;;
13698;SDS011;6921;53.642;9.956;2022-11-20T07:44:50;9.10;;;6.93;;
13698;SDS011;6921;53.642;9.956;2022-11-20T07:46:53;10.57;;;6.93;;
13698;SDS011;6921;53.642;9.956;2022-11-20T07:48:57;11.13;;;7.03;;
13698;SDS011;6921;53.642;9.956;2022-11-20T07:51:00;9.03;;;7.13;;
13698;SDS011;6921;53.642;9.956;2022-11-20T07:53:04;9.50;;;6.60;;
13698;SDS011;6921;53.642;9.956;2022-11-20T07:55:09;7.23;;;5.77;;
13698;SDS011;6921;53.642;9.956;2022-11-20T07:57:13;9.10;;;6.53;;
13698;SDS011;6921;53.642;9.956;2022-11-20T07:59:16;9.57;;;6.33;;
13698;SDS011;6921;53.642;9.956;2022-11-20T08:01:20;8.07;;;6.10;;
13698;SDS011;6921;53.642;9.956;2022-11-20T08:03:23;9.20;;;6.17;;
13698;SDS011;6921;53.642;9.956;2022-11-20T08:05:26;10.97;;;7.80;;
13698;SDS011;6921;53.642;9.956;2022-11-20T08:07:34;10.10;;;7.47;;
13698;SDS011;6921;53.642;9.956;2022-11-20T08:09:37;8.83;;;6.33;;
13698;SDS011;6921;53.642;9.956;2022-11-20T08:11:42;11.50;;;7.27;;
13698;SDS011;6921;53.642;9.956;2022-11-20T08:14:08;9.20;;;6.10;;
13698;SDS011;6921;53.642;9.956;2022-11-20T08:16:14;7.47;;;5.67;;
13698;SDS011;6921;53.642;9.956;2022-11-20T08:18:18;8.03;;;6.00;;
13698;SDS011;6921;53.642;9.956;2022-11-20T08:20:37;8.43;;;5.83;;
13698;SDS011;6921;53.642;9.956;2022-11-20T08:22:40;7.37;;;5.63;;
13698;SDS011;6921;53.642;9.956;2022-11-20T08:24:43;8.23;;;6.03;;
13698;SDS011;6921;53.642;9.956;2022-11-20T08:26:48;7.43;;;5.83;;
13698;SDS011;6921;53.642;9.956;2022-11-20T08:28:52;9.33;;;5.60;;
13698;SDS011;6921;53.642;9.956;2022-11-20T08:30:57;6.90;;;4.87;;
13698;SDS011;6921;53.642;9.956;2022-11-20T08:33:02;8.13;;;5.73;;
13698;SDS011;6921;53.642;9.956;2022-11-20T08:35:05;10.60;;;6.43;;
13698;SDS011;6921;53.642;9.956;2022-11-20T08:37:09;8.00;;;5.67;;
13698;SDS011;6921;53.642;9.956;2022-11-20T08:39:12;8.60;;;5.50;;
13698;SDS011;6921;53.642;9.956;2022-11-20T08:41:15;9.27;;;5.37;;
13698;SDS011;6921;53.642;9.956;2022-11-20T08:43:30;7.17;;;4.93;;
13698;SDS011;6921;53.642;9.956;2022-11-20T08:45:33;6.40;;;5.10;;
13698;SDS011;6921;53.642;9.956;2022-11-20T08:47:36;7.43;;;5.10;;
13698;SDS011;6921;53.642;9.956;2022-11-20T08:49:40;6.20;;;5.03;;
13698;SDS011;6921;53.642;9.956;2022-11-20T08:51:43;6.47;;;4.90;;
13698;SDS011;6921;53.642;9.956;2022-11-20T08:53:49;6.07;;;5.00;;
13698;SDS011;6921;53.642;9.956;2022-11-20T08:55:52;8.50;;;5.63;;
13698;SDS011;6921;53.642;9.956;2022-11-20T08:57:55;9.03;;;5.13;;
13698;SDS011;6921;53.642;9.956;2022-11-20T09:00:00;6.83;;;5.27;;
13698;SDS011;6921;53.642;9.956;2022-11-20T09:02:07;7.33;;;5.13;;
13698;SDS011;6921;53.642;9.956;2022-11-20T09:04:10;7.00;;;4.70;;
13698;SDS011;6921;53.642;9.956;2022-11-20T09:06:15;9.17;;;5.23;;
13698;SDS011;6921;53.642;9.956;2022-11-20T09:08:18;7.50;;;5.77;;
13698;SDS011;6921;53.642;9.956;2022-11-20T09:10:22;6.63;;;4.83;;
13698;SDS011;6921;53.642;9.956;2022-11-20T09:12:25;5.50;;;4.63;;
13698;SDS011;6921;53.642;9.956;2022-11-20T09:14:28;7.40;;;4.90;;
13698;SDS011;6921;53.642;9.956;2022-11-20T09:16:33;6.47;;;4.57;;
13698;SDS011;6921;53.642;9.956;2022-11-20T09:18:36;7.33;;;4.97;;
13698;SDS011;6921;53.642;9.956;2022-11-20T09:20:40;6.27;;;4.53;;
13698;SDS011;6921;53.642;9.956;2022-11-20T09:22:43;7.10;;;5.10;;
13698;SDS011;6921;53.642;9.956;2022-11-20T09:24:46;8.40;;;5.10;;
13698;SDS011;6921;53.642;9.956;2022-11-20T09:26:50;7.80;;;5.10;;
13698;SDS011;6921;53.642;9.956;2022-11-20T09:28:53;6.53;;;5.47;;
13698;SDS011;6921;53.642;9.956;2022-11-20T09:30:58;9.57;;;5.60;;
13698;SDS011;6921;53.642;9.956;2022-11-20T09:33:05;5.63;;;4.70;;
13698;SDS011;6921;53.642;9.956;2022-11-20T09:35:08;7.87;;;5.67;;
13698;SDS011;6921;53.642;9.956;2022-11-20T09:37:12;8.03;;;5.13;;
13698;SDS011;6921;53.642;9.956;2022-11-20T09:39:16;8.10;;;5.37;;
13698;SDS011;6921;53.642;9.956;2022-11-20T09:41:28;8.03;;;5.40;;
13698;SDS011;6921;53.642;9.956;2022-11-20T09:43:49;6.90;;;5.20;;
13698;SDS011;6921;53.642;9.956;2022-11-20T09:45:58;9.50;;;5.63;;
13698;SDS011;6921;53.642;9.956;2022-11-20T09:48:08;6.30;;;5.27;;
13698;SDS011;6921;53.642;9.956;2022-11-20T09:50:19;6.63;;;4.80;;
13698;SDS011;6921;53.642;9.956;2022-11-20T09:52:26;8.93;;;5.33;;
13698;SDS011;6921;53.642;9.956;2022-11-20T09:54:34;5.40;;;4.80;;
13698;SDS011;6921;53.642;9.956;2022-11-20T09:56:39;5.77;;;4.50;;
13698;SDS011;6921;53.642;9.956;2022-11-20T09:58:44;6.53;;;5.10;;
13698;SDS011;6921;53.642;9.956;2022-11-20T10:00:48;6.67;;;3.90;;
13698;SDS011;6921;53.642;9.956;2022-11-20T10:02:53;6.50;;;4.30;;
13698;SDS011;6921;53.642;9.956;2022-11-20T10:05:01;6.57;;;4.40;;
13698;SDS011;6921;53.642;9.956;2022-11-20T10:07:06;5.87;;;4.77;;
13698;SDS011;6921;53.642;9.956;2022-11-20T10:09:30;5.43;;;4.30;;
13698;SDS011;6921;53.642;9.956;2022-11-20T10:11:41;5.93;;;4.47;;
13698;SDS011;6921;53.642;9.956;2022-11-20T10:13:50;5.90;;;4.60;;
13698;SDS011;6921;53.642;9.956;2022-11-20T10:16:01;4.73;;;4.20;;
13698;SDS011;6921;53.642;9.956;2022-11-20T10:18:11;7.20;;;5.60;;
13698;SDS011;6921;53.642;9.956;2022-11-20T10:20:19;9.67;;;6.37;;
13698;SDS011;6921;53.642;9.956;2022-11-20T10:22:29;7.57;;;5.10;;
13698;SDS011;6921;53.642;9.956;2022-11-20T10:24:44;6.67;;;4.80;;
13698;SDS011;6921;53.642;9.956;2022-11-20T10:26:52;7.47;;;4.67;;
13698;SDS011;6921;53.642;9.956;2022-11-20T10:29:06;6.30;;;4.43;;
13698;SDS011;6921;53.642;9.956;2022-11-20T10:31:13;5.60;;;4.20;;
13698;SDS011;6921;53.642;9.956;2022-11-20T10:33:18;5.67;;;4.63;;
13698;SDS011;6921;53.642;9.956;2022-11-20T10:35:25;5.63;;;4.33;;
13698;SDS011;6921;53.642;9.956;2022-11-20T10:37:30;7.03;;;5.23;;
13698;SDS011;6921;53.642;9.956;2022-11-20T10:39:35;6.90;;;4.53;;
13698;SDS011;6921;53.642;9.956;2022-11-20T10:41:41;5.23;;;3.37;;
13698;SDS011;6921;53.642;9.956;2022-11-20T10:43:44;4.00;;;3.50;;
13698;SDS011;6921;53.642;9.956;2022-11-20T10:45:50;4.07;;;3.37;;
13698;SDS011;6921;53.642;9.956;2022-11-20T10:47:59;6.00;;;3.23;;
13698;SDS011;6921;53.642;9.956;2022-11-20T10:50:09;4.57;;;3.30;;
13698;SDS011;6921;53.642;9.956;2022-11-20T10:52:20;3.73;;;3.40;;
13698;SDS011;6921;53.642;9.956;2022-11-20T10:54:29;3.97;;;3.43;;
13698;SDS011;6921;53.642;9.956;2022-11-20T10:56:38;4.50;;;3.43;;
13698;SDS011;6921;53.642;9.956;2022-11-20T10:58:52;4.13;;;3.40;;
13698;SDS011;6921;53.642;9.956;2022-11-20T11:01:03;4.67;;;3.70;;
13698;SDS011;6921;53.642;9.956;2022-11-20T11:03:13;4.97;;;3.73;;
13698;SDS011;6921;53.642;9.956;2022-11-20T11:05:23;4.47;;;3.60;;
13698;SDS011;6921;53.642;9.956;2022-11-20T11:07:30;4.30;;;3.50;;
13698;SDS011;6921;53.642;9.956;2022-11-20T11:09:38;4.33;;;3.30;;
13698;SDS011;6921;53.642;9.956;2022-11-20T11:11:42;4.60;;;3.90;;
13698;SDS011;6921;53.642;9.956;2022-11-20T11:13:46;4.70;;;3.87;;
13698;SDS011;6921;53.642;9.956;2022-11-20T11:15:49;3.80;;;3.30;;
13698;SDS011;6921;53.642;9.956;2022-11-20T11:17:52;3.93;;;3.40;;
13698;SDS011;6921;53.642;9.956;2022-11-20T11:19:59;3.90;;;3.17;;
13698;SDS011;6921;53.642;9.956;2022-11-20T11:22:03;5.43;;;3.50;;
13698;SDS011;6921;53.642;9.956;2022-11-20T11:24:19;3.70;;;3.00;;
13698;SDS011;6921;53.642;9.956;2022-11-20T11:26:50;3.90;;;3.13;;
13698;SDS011;6921;53.642;9.956;2022-11-20T11:28:54;3.43;;;2.83;;
13698;SDS011;6921;53.642;9.956;2022-11-20T11:30:57;4.33;;;3.20;;
13698;SDS011;6921;53.642;9.956;2022-11-20T11:33:04;4.33;;;3.60;;
13698;SDS011;6921;53.642;9.956;2022-11-20T11:35:18;3.83;;;3.43;;
13698;SDS011;6921;53.642;9.956;2022-11-20T11:37:22;4.03;;;3.47;;
13698;SDS011;6921;53.642;9.956;2022-11-20T11:39:27;4.27;;;3.30;;
13698;SDS011;6921;53.642;9.956;2022-11-20T11:41:32;4.23;;;3.67;;
13698;SDS011;6921;53.642;9.956;2022-11-20T11:43:37;3.50;;;3.20;;
13698;SDS011;6921;53.642;9.956;2022-11-20T11:45:54;4.10;;;3.43;;
13698;SDS011;6921;53.642;9.956;2022-11-20T11:47:58;4.03;;;3.60;;
13698;SDS011;6921;53.642;9.956;2022-11-20T11:50:13;4.37;;;3.70;;
13698;SDS011;6921;53.642;9.956;2022-11-20T11:52:18;4.57;;;3.30;;
13698;SDS011;6921;53.642;9.956;2022-11-20T11:54:22;4.33;;;3.10;;
13698;SDS011;6921;53.642;9.956;2022-11-20T11:56:27;4.47;;;2.90;;
13698;SDS011;6921;53.642;9.956;2022-11-20T11:58:38;2.93;;;2.63;;
13698;SDS011;6921;53.642;9.956;2022-11-20T12:00:47;3.73;;;3.10;;
13698;SDS011;6921;53.642;9.956;2022-11-20T12:02:54;3.20;;;2.70;;
13698;SDS011;6921;53.642;9.956;2022-11-20T12:05:02;3.30;;;2.90;;
13698;SDS011;6921;53.642;9.956;2022-11-20T12:07:09;3.50;;;2.93;;
13698;SDS011;6921;53.642;9.956;2022-11-20T12:09:34;4.70;;;3.30;;
13698;SDS011;6921;53.642;9.956;2022-11-20T12:11:43;3.57;;;3.10;;
13698;SDS011;6921;53.642;9.956;2022-11-20T12:13:49;4.30;;;3.13;;
13698;SDS011;6921;53.642;9.956;2022-11-20T12:15:55;3.60;;;3.20;;
13698;SDS011;6921;53.642;9.956;2022-11-20T12:17:59;3.73;;;3.07;;
13698;SDS011;6921;53.642;9.956;2022-11-20T12:20:02;4.07;;;3.30;;
13698;SDS011;6921;53.642;9.956;2022-11-20T12:22:07;4.23;;;3.50;;
13698;SDS011;6921;53.642;9.956;2022-11-20T12:24:28;3.90;;;3.23;;
13698;SDS011;6921;53.642;9.956;2022-11-20T12:26:36;4.93;;;3.30;;
13698;SDS011;6921;53.642;9.956;2022-11-20T12:28:47;3.53;;;2.73;;
13698;SDS011;6921;53.642;9.956;2022-11-20T12:30:57;3.63;;;2.90;;
13698;SDS011;6921;53.642;9.956;2022-11-20T12:33:08;4.37;;;3.37;;
13698;SDS011;6921;53.642;9.956;2022-11-20T12:35:20;3.53;;;3.00;;
13698;SDS011;6921;53.642;9.956;2022-11-20T12:37:30;4.67;;;3.50;;
13698;SDS011;6921;53.642;9.956;2022-11-20T12:39:36;3.20;;;2.87;;
13698;SDS011;6921;53.642;9.956;2022-11-20T12:41:45;3.30;;;2.83;;
13698;SDS011;6921;53.642;9.956;2022-11-20T12:44:13;3.33;;;2.80;;
13698;SDS011;6921;53.642;9.956;2022-11-20T12:46:37;3.97;;;3.00;;
13698;SDS011;6921;53.642;9.956;2022-11-20T12:51:07;3.70;;;3.13;;